Data for 12/16/2015

Time Sea-Level Adjusted Pressure Absolute Pressure Temperature Relative Humidity Dew Point   
(mb) (inHg) (mb) (inHg) (C) (F) (%) (C) (F)
00:05 1015 29.97 844 24.92 -4.6 23.6 69 -9.5 14.9
00:10 1015 29.97 844 24.92 -4.6 23.8 69 -9.4 15.2
00:15 1015 29.97 844 24.92 -4.6 23.8 70 -9.3 15.2
00:20 1015 29.97 844 24.92 -4.6 23.7 70 -9.2 15.4
00:25 1015 29.97 844 24.92 -4.6 23.7 70 -9.3 15.2
00:30 1015 29.97 844 24.92 -4.6 23.7 71 -9.2 15.5
00:35 1015 29.97 844 24.92 -4.6 23.8 69 -9.4 15
00:40 1015 29.97 844 24.92 -4.5 23.8 68 -9.5 14.8
00:45 1015 29.97 844 24.92 -4.5 23.9 69 -9.4 15
00:50 1015 29.97 844 24.92 -4.5 23.9 69 -9.4 15.1
00:55 1015 29.97 844 24.92 -4.4 24 68 -9.5 14.8
01:00 1015 29.97 844 24.92 -4.4 24 68 -9.5 14.8
01:05 1015 29.97 844 24.92 -4.4 24 67 -9.8 14.4
01:10 1015 29.97 844 24.92 -4.4 24.1 68 -9.5 14.9
01:15 1015 29.97 844 24.92 -4.4 24.1 68 -9.4 15
01:20 1015 29.97 844 24.92 -4.4 24 68 -9.5 14.9
01:25 1015 29.97 844 24.92 -4.3 24.2 67 -9.5 14.8
01:30 1015 29.97 844 24.92 -4.2 24.4 66 -9.6 14.7
01:35 1015 29.97 844 24.92 -4.1 24.6 66 -9.6 14.7
01:40 1015 29.97 844 24.92 -4 24.7 65 -9.6 14.7
01:45 1015 29.97 844 24.92 -4 24.7 66 -9.4 15
01:50 1015 29.97 844 24.92 -4.1 24.7 67 -9.4 15.1
01:55 1015 29.97 844 24.92 -4.1 24.6 67 -9.4 15
02:00 1015 29.97 844 24.92 -4.1 24.6 67 -9.4 15.2
02:05 1015 29.97 844 24.92 -4.1 24.5 67 -9.4 15
02:10 1014 29.94 844 24.92 -4.1 24.6 69 -9 15.8
02:15 1014 29.94 844 24.92 -4.2 24.4 74 -8.3 17.1
02:20 1015 29.97 844 24.92 -4.5 23.9 73 -8.7 16.3
02:25 1015 29.97 844 24.92 -4.6 23.7 73 -8.7 16.3
02:30 1015 29.97 844 24.92 -4.6 23.7 74 -8.6 16.5
02:35 1015 29.97 844 24.92 -4.6 23.8 74 -8.6 16.6
02:40 1015 29.97 844 24.92 -4.6 23.7 74 -8.6 16.5
02:45 1014 29.94 844 24.92 -4.6 23.7 73 -8.8 16.2
02:50 1014 29.94 844 24.92 -4.6 23.8 74 -8.6 16.6
02:55 1014 29.94 844 24.92 -4.6 23.8 73 -8.7 16.3
03:00 1014 29.94 844 24.92 -4.5 23.8 70 -9.2 15.5
03:05 1014 29.94 844 24.92 -4.7 23.5 72 -9 15.7
03:10 1014 29.94 844 24.92 -4.9 23.2 73 -9 15.9
03:15 1014 29.94 844 24.92 -5 23.1 74 -8.9 16
03:20 1014 29.94 844 24.92 -5 23.1 75 -8.7 16.3
03:25 1014 29.94 844 24.92 -4.9 23.1 75 -8.7 16.3
03:30 1014 29.94 844 24.92 -5 23.1 76 -8.5 16.6
03:35 1014 29.94 844 24.92 -5.1 22.9 77 -8.4 16.8
03:40 1014 29.94 844 24.92 -5.1 22.8 79 -8.2 17.2
03:45 1014 29.94 844 24.92 -5.1 22.8 79 -8.2 17.2
03:50 1014 29.94 844 24.92 -5.1 22.8 78 -8.4 16.9
03:55 1014 29.94 844 24.92 -5.1 22.8 78 -8.4 16.9
04:00 1014 29.94 844 24.92 -5.1 22.9 77 -8.5 16.7
04:05 1014 29.94 844 24.92 -5 23 77 -8.5 16.7
04:10 1014 29.94 844 24.92 -5 23 76 -8.6 16.6
04:15 1014 29.94 844 24.92 -4.9 23.2 75 -8.6 16.5
04:20 1014 29.94 844 24.92 -4.9 23.2 76 -8.5 16.7
04:25 1014 29.94 844 24.92 -4.9 23.2 78 -8.2 17.2
04:30 1014 29.94 844 24.92 -5 23 79 -8.1 17.4
04:35 1014 29.94 844 24.92 -5.1 22.9 77 -8.5 16.8
04:40 1014 29.94 844 24.92 -5.1 22.9 78 -8.3 17.1
04:45 1014 29.94 844 24.92 -5 22.9 79 -8.2 17.3
04:50 1014 29.94 844 24.92 -5.1 22.8 79 -8.2 17.2
04:55 1014 29.94 844 24.92 -5.1 22.8 78 -8.3 17
05:00 1014 29.94 844 24.92 -5.1 22.9 78 -8.4 16.9
05:05 1014 29.94 844 24.92 -5 22.9 78 -8.2 17.2
05:10 1014 29.94 844 24.92 -5.1 22.9 77 -8.4 16.8
05:15 1014 29.94 844 24.92 -5.1 22.9 77 -8.4 16.8
05:20 1014 29.94 843 24.89 -5 23 78 -8.3 17.1
05:25 1014 29.94 843 24.89 -5.1 22.9 80 -8 17.6
05:30 1014 29.94 843 24.89 -5.1 22.8 80 -8.1 17.4
05:35 1014 29.94 843 24.89 -5.1 22.7 79 -8.2 17.2
05:40 1014 29.94 843 24.89 -5.2 22.7 80 -8.2 17.3
05:45 1014 29.94 843 24.89 -5.1 22.7 80 -8.1 17.4
05:50 1014 29.94 843 24.89 -5.2 22.7 80 -8.1 17.4
05:55 1014 29.94 843 24.89 -5.2 22.6 80 -8.1 17.4
06:00 1014 29.94 843 24.89 -5.2 22.6 80 -8.2 17.3
06:05 1014 29.94 843 24.89 -5.3 22.5 80 -8.2 17.3
06:10 1014 29.94 843 24.89 -5.4 22.3 80 -8.3 17
06:15 1014 29.94 843 24.89 -5.5 22.1 82 -8.1 17.5
06:20 1014 29.94 843 24.89 -5.6 21.9 83 -8 17.6
06:25 1014 29.94 843 24.89 -6 21.3 84 -8.2 17.3
06:30 1014 29.94 843 24.89 -6.2 20.9 85 -8.4 16.9
06:35 1014 29.94 843 24.89 -6.2 20.8 85 -8.4 16.9
06:40 1014 29.94 843 24.89 -6.2 20.8 85 -8.3 17.1
06:45 1014 29.94 843 24.89 -6.1 20.9 85 -8.2 17.2
06:50 1014 29.94 843 24.89 -6.1 21 85 -8.3 17.1
06:55 1014 29.94 843 24.89 -6.2 20.8 85 -8.3 17
07:00 1014 29.94 843 24.89 -6.3 20.7 85 -8.3 17
07:05 1014 29.94 843 24.89 -6.2 20.8 86 -8.3 17.1
07:10 1014 29.94 843 24.89 -6.1 20.9 86 -8.2 17.3
07:15 1014 29.94 843 24.89 -6.1 21 85 -8.2 17.2
07:20 1014 29.94 843 24.89 -6 21.1 85 -8.2 17.2
07:25 1014 29.94 843 24.89 -6 21.2 85 -8.1 17.3
07:30 1014 29.94 843 24.89 -5.9 21.4 83 -8.2 17.2
07:35 1014 29.94 843 24.89 -6 21.3 83 -8.3 17
07:40 1014 29.94 843 24.89 -6 21.2 83 -8.5 16.7
07:45 1014 29.94 843 24.89 -5.9 21.3 82 -8.5 16.6
07:50 1014 29.94 843 24.89 -5.9 21.4 82 -8.5 16.7
07:55 1014 29.94 843 24.89 -6.1 21 84 -8.4 16.9
08:00 1014 29.94 843 24.89 -6.2 20.8 85 -8.4 16.9
08:05 1014 29.94 843 24.89 -6.2 20.9 84 -8.4 16.9
08:10 1014 29.94 843 24.89 -6.3 20.7 84 -8.6 16.5
08:15 1014 29.94 843 24.89 -6.2 20.9 82 -8.7 16.4
08:20 1014 29.94 843 24.89 -6.2 20.9 84 -8.5 16.8
08:25 1014 29.94 843 24.89 -6.3 20.7 85 -8.4 16.8
08:30 1014 29.94 843 24.89 -6.5 20.3 86 -8.5 16.7
08:35 1014 29.94 843 24.89 -6.5 20.3 85 -8.6 16.5
08:40 1013 29.91 843 24.89 -6.4 20.4 84 -8.8 16.2
08:45 1013 29.91 843 24.89 -6.4 20.5 84 -8.7 16.3
08:50 1013 29.91 842 24.86 -6.5 20.3 84 -8.8 16.2
08:55 1013 29.91 842 24.86 -6.7 20 85 -8.8 16.2
09:00 1013 29.91 842 24.86 -6.7 20 84 -8.9 16
09:05 1013 29.91 842 24.86 -6.7 20 84 -8.9 15.9
09:10 1013 29.91 842 24.86 -6.6 20.1 84 -9 15.8
09:15 1013 29.91 842 24.86 -6.4 20.4 83 -8.9 15.9
09:20 1013 29.91 842 24.86 -6.5 20.4 83 -8.9 16
09:25 1013 29.91 842 24.86 -6.5 20.3 83 -8.9 15.9
09:30 1013 29.91 842 24.86 -6.5 20.3 83 -9 15.9
09:35 1013 29.91 842 24.86 -6.5 20.3 82 -9 15.8
09:40 1013 29.91 842 24.86 -6.4 20.5 82 -9 15.8
09:45 1013 29.91 842 24.86 -6.4 20.4 83 -8.9 16
09:50 1013 29.91 842 24.86 -6.4 20.4 82 -9.1 15.7
09:55 1013 29.91 842 24.86 -6.3 20.7 81 -9 15.8
10:00 1013 29.91 842 24.86 -6.2 20.8 82 -8.9 16
10:05 1013 29.91 842 24.86 -6.2 20.9 80 -9.1 15.7
10:10 1013 29.91 842 24.86 -6.1 21 79 -9.2 15.5
10:15 1013 29.91 842 24.86 -6 21.1 79 -9.2 15.5
10:20 1013 29.91 842 24.86 -6.1 21 80 -9.1 15.6
10:25 1013 29.91 842 24.86 -6.2 20.8 79 -9.3 15.3
10:30 1013 29.91 842 24.86 -6.1 21 78 -9.4 15.2
10:35 1013 29.91 842 24.86 -6 21.3 77 -9.3 15.3
10:40 1013 29.91 842 24.86 -5.8 21.5 77 -9.2 15.5
10:45 1013 29.91 842 24.86 -5.6 22 76 -9.2 15.5
10:50 1013 29.91 842 24.86 -5.1 22.8 73 -9.2 15.5
10:55 1012 29.88 842 24.86 -4.6 23.7 69 -9.4 15.1
11:00 1012 29.88 842 24.86 -4.2 24.5 69 -9.1 15.6
11:05 1012 29.88 842 24.86 -3.9 24.9 68 -8.9 15.9
11:10 1012 29.88 842 24.86 -3.9 24.9 70 -8.7 16.4
11:15 1012 29.88 842 24.86 -3.8 25.2 69 -8.7 16.3
11:20 1012 29.88 842 24.86 -3.6 25.6 66 -9 15.8
11:25 1012 29.88 842 24.86 -4 24.8 67 -9.2 15.4
11:30 1012 29.88 842 24.86 -4.2 24.4 69 -9 15.8
11:35 1012 29.88 842 24.86 -4.2 24.4 68 -9.3 15.3
11:40 1012 29.88 842 24.86 -4 24.8 67 -9.3 15.3
11:45 1012 29.88 842 24.86 -3.8 25.1 67 -9 15.7
11:50 1012 29.88 841 24.83 -3.6 25.5 66 -9.2 15.5
11:55 1012 29.88 841 24.83 -3.5 25.7 69 -8.4 16.8
12:00 1012 29.88 841 24.83 -4.1 24.7 71 -8.6 16.5
12:05 1012 29.88 841 24.83 -4.1 24.6 70 -8.9 16
12:10 1012 29.88 841 24.83 -4 24.8 71 -8.5 16.7
12:15 1012 29.88 841 24.83 -3.8 25.1 71 -8.4 17
12:20 1012 29.88 841 24.83 -3.4 25.9 70 -8.1 17.5
12:25 1012 29.88 841 24.83 -3.2 26.2 69 -8 17.5
12:30 1012 29.88 841 24.83 -3.4 25.8 72 -7.8 17.9
12:35 1012 29.88 841 24.83 -3.7 25.3 75 -7.6 18.3
12:40 1012 29.88 841 24.83 -4.4 24 78 -7.7 18.1
12:45 1012 29.88 841 24.83 -4.3 24.3 76 -7.9 17.9
12:50 1011 29.85 841 24.83 -5 23 81 -7.7 18.1
12:55 1011 29.85 841 24.83 -5.2 22.6 80 -8.1 17.4
13:00 1011 29.85 840 24.81 -5.2 22.7 77 -8.6 16.6
13:05 1011 29.85 840 24.81 -5.1 22.8 78 -8.3 17.1
13:10 1011 29.85 840 24.81 -4.8 23.4 79 -7.8 17.9
13:15 1011 29.85 840 24.81 -4.6 23.7 78 -7.9 17.9
13:20 1011 29.85 840 24.81 -4.8 23.3 79 -7.9 17.8
13:25 1011 29.85 840 24.81 -4.8 23.3 79 -8 17.6
13:30 1011 29.85 840 24.81 -4.8 23.4 79 -7.9 17.8
13:35 1011 29.85 840 24.81 -4.6 23.7 79 -7.7 18.2
13:40 1011 29.85 840 24.81 -4.4 24 80 -7.4 18.6
13:45 1011 29.85 840 24.81 -4.4 24 79 -7.5 18.5
13:50 1011 29.85 840 24.81 -4.6 23.7 79 -7.7 18.1
13:55 1011 29.85 840 24.81 -5.5 22 84 -7.9 17.8
14:00 1011 29.85 840 24.81 -5.9 21.4 88 -7.6 18.4
14:05 1011 29.85 840 24.81 -5.6 21.8 87 -7.5 18.5
14:10 1011 29.85 840 24.81 -5.6 22 87 -7.5 18.6
14:15 1011 29.85 840 24.81 -5.5 22.2 87 -7.3 18.8
14:20 1011 29.85 840 24.81 -5.1 22.7 85 -7.3 18.9
14:25 1011 29.85 840 24.81 -5.2 22.6 84 -7.5 18.6
14:30 1011 29.85 840 24.81 -5.6 21.9 88 -7.3 18.9
14:35 1011 29.85 840 24.81 -5.1 22.9 86 -7.1 19.3
14:40 1011 29.85 840 24.81 -4.9 23.3 85 -7 19.3
14:45 1010 29.83 840 24.81 -4.8 23.3 85 -7 19.4
14:50 1010 29.83 840 24.81 -4.7 23.6 85 -6.9 19.7
14:55 1011 29.85 840 24.81 -4.6 23.7 84 -6.8 19.7
15:00 1011 29.85 840 24.81 -4.5 23.9 84 -6.8 19.7
15:05 1011 29.85 840 24.81 -4.4 24.1 83 -6.8 19.7
15:10 1011 29.85 840 24.81 -4.4 24.1 83 -6.8 19.7
15:15 1011 29.85 840 24.81 -4.4 24.2 84 -6.6 20.1
15:20 1011 29.85 840 24.81 -4.3 24.2 83 -6.7 19.9
15:25 1011 29.85 840 24.81 -4.6 23.8 84 -6.9 19.7
15:30 1011 29.85 840 24.81 -4.7 23.6 85 -6.8 19.8
15:35 1011 29.85 840 24.81 -4.7 23.5 85 -7 19.5
15:40 1011 29.85 840 24.81 -4.8 23.4 86 -6.8 19.7
15:45 1011 29.85 840 24.81 -4.7 23.5 85 -6.9 19.6
15:50 1011 29.85 840 24.81 -4.8 23.3 85 -6.9 19.5
15:55 1011 29.85 840 24.81 -4.9 23.2 86 -6.9 19.6
16:00 1011 29.85 840 24.81 -4.9 23.1 86 -7 19.4
16:05 1011 29.85 840 24.81 -5 23 85 -7.1 19.2
16:10 1011 29.85 840 24.81 -5.1 22.8 86 -7.1 19.2
16:15 1011 29.85 840 24.81 -5.2 22.7 87 -7 19.4
16:20 1011 29.85 840 24.81 -5.2 22.7 87 -7 19.4
16:25 1011 29.85 840 24.81 -5.3 22.5 87 -7.2 19.1
16:30 1011 29.85 840 24.81 -5.4 22.2 87 -7.3 18.9
16:35 1011 29.85 840 24.81 -5.6 21.9 88 -7.3 18.8
16:40 1011 29.85 840 24.81 -5.7 21.8 88 -7.3 18.8
16:45 1011 29.85 840 24.81 -5.7 21.8 88 -7.3 18.8
16:50 1011 29.85 840 24.81 -5.7 21.8 88 -7.3 18.9
16:55 1011 29.85 840 24.81 -5.7 21.8 88 -7.3 18.8
17:00 1011 29.85 841 24.83 -5.6 21.9 89 -7.2 19
17:05 1011 29.85 841 24.83 -5.6 21.9 88 -7.3 18.9
17:10 1011 29.85 841 24.83 -5.6 21.8 88 -7.3 18.9
17:15 1011 29.85 841 24.83 -5.7 21.8 89 -7.3 18.9
17:20 1012 29.88 841 24.83 -5.8 21.6 89 -7.3 18.8
17:25 1012 29.88 841 24.83 -5.9 21.4 89 -7.4 18.7
17:30 1012 29.88 841 24.83 -5.9 21.3 89 -7.4 18.6
17:35 1012 29.88 841 24.83 -5.9 21.4 89 -7.4 18.7
17:40 1012 29.88 841 24.83 -5.8 21.5 90 -7.3 18.9
17:45 1012 29.88 841 24.83 -5.8 21.6 89 -7.2 19
17:50 1012 29.88 841 24.83 -5.8 21.6 90 -7.2 19
17:55 1012 29.88 841 24.83 -5.8 21.6 90 -7.2 19
18:00 1012 29.88 841 24.83 -5.8 21.6 90 -7.2 19.1
18:05 1012 29.88 841 24.83 -5.8 21.5 90 -7.2 19
18:10 1012 29.88 841 24.83 -5.8 21.5 90 -7.2 19
18:15 1012 29.88 842 24.86 -5.8 21.5 90 -7.3 18.9
18:20 1012 29.88 842 24.86 -6 21.1 89 -7.6 18.4
18:25 1012 29.88 842 24.86 -6.2 20.8 90 -7.6 18.2
18:30 1013 29.91 842 24.86 -6.2 20.8 90 -7.7 18.2
18:35 1013 29.91 842 24.86 -6.2 20.8 90 -7.6 18.3
18:40 1013 29.91 842 24.86 -6.2 20.8 89 -7.8 17.9
18:45 1013 29.91 842 24.86 -6.4 20.4 89 -8 17.5
18:50 1013 29.91 842 24.86 -6.6 20.1 89 -8.2 17.2
18:55 1013 29.91 842 24.86 -6.8 19.8 89 -8.4 16.9
19:00 1013 29.91 843 24.89 -7 19.4 89 -8.5 16.7
19:05 1014 29.94 843 24.89 -7.2 19.1 90 -8.5 16.6
19:10 1014 29.94 843 24.89 -7.2 19.1 90 -8.6 16.5
19:15 1014 29.94 843 24.89 -7.4 18.8 90 -8.7 16.3
19:20 1014 29.94 843 24.89 -7.4 18.7 91 -8.7 16.4
19:25 1014 29.94 843 24.89 -7.2 19 90 -8.6 16.6
19:30 1014 29.94 843 24.89 -7.2 19 91 -8.5 16.8
19:35 1014 29.94 843 24.89 -7.2 19.1 90 -8.6 16.6
19:40 1014 29.94 843 24.89 -7.3 18.8 90 -8.7 16.4
19:45 1014 29.94 843 24.89 -7.4 18.7 90 -8.7 16.3
19:50 1014 29.94 843 24.89 -7.4 18.7 90 -8.8 16.2
19:55 1014 29.94 843 24.89 -7.4 18.6 89 -8.9 16
20:00 1014 29.94 844 24.92 -7.5 18.5 89 -8.9 15.9
20:05 1014 29.94 844 24.92 -7.6 18.3 89 -9.1 15.6
20:10 1014 29.94 844 24.92 -7.7 18.1 89 -9.3 15.3
20:15 1014 29.94 844 24.92 -7.8 17.9 88 -9.4 15
20:20 1015 29.97 844 24.92 -7.9 17.9 87 -9.6 14.7
20:25 1015 29.97 844 24.92 -7.9 17.8 86 -9.8 14.3
20:30 1015 29.97 844 24.92 -8 17.6 85 -10.1 13.8
20:35 1015 29.97 844 24.92 -7.9 17.7 86 -9.9 14.2
20:40 1015 29.97 844 24.92 -8 17.7 86 -10 14.1
20:45 1015 29.97 844 24.92 -8.1 17.5 86 -10 14
20:50 1015 29.97 844 24.92 -8.1 17.5 87 -9.9 14.1
20:55 1015 29.97 844 24.92 -8.1 17.4 86 -10.1 13.9
21:00 1015 29.97 844 24.92 -8.2 17.3 84 -10.4 13.3
21:05 1015 29.97 844 24.92 -8.2 17.2 84 -10.4 13.2
21:10 1015 29.97 845 24.95 -8.2 17.3 81 -10.8 12.5
21:15 1015 29.97 845 24.95 -8.2 17.3 80 -10.9 12.3
21:20 1015 29.97 845 24.95 -8.2 17.2 81 -10.9 12.4
21:25 1016 30 845 24.95 -8.3 17.1 81 -10.9 12.3
21:30 1016 30 845 24.95 -8.3 17.1 82 -10.9 12.4
21:35 1016 30 845 24.95 -8.4 17 81 -11 12.1
21:40 1016 30 845 24.95 -8.4 16.8 81 -11.1 12
21:45 1016 30 845 24.95 -8.6 16.6 80 -11.4 11.5
21:50 1016 30 845 24.95 -8.6 16.5 80 -11.4 11.4
21:55 1016 30 845 24.95 -8.7 16.3 80 -11.6 11.1
22:00 1016 30 845 24.95 -8.8 16.1 80 -11.7 11
22:05 1016 30 845 24.95 -8.8 16.1 79 -11.8 10.7
22:10 1016 30 845 24.95 -8.9 16 78 -12.1 10.2
22:15 1016 30 845 24.95 -8.9 16 77 -12.2 10
22:20 1016 30 845 24.95 -9 15.9 77 -12.3 9.9
22:25 1016 30 846 24.98 -9 15.8 75 -12.6 9.3
22:30 1016 30 846 24.98 -9 15.7 76 -12.6 9.3
22:35 1016 30 846 24.98 -9.1 15.6 76 -12.7 9.2
22:40 1017 30.03 846 24.98 -9.2 15.5 75 -12.8 9
22:45 1017 30.03 846 24.98 -9.3 15.3 75 -12.9 8.7
22:50 1017 30.03 846 24.98 -9.4 15.1 76 -12.8 8.9
22:55 1017 30.03 846 24.98 -9.6 14.8 77 -12.9 8.7
23:00 1017 30.03 846 24.98 -9.6 14.7 76 -13 8.5
23:05 1017 30.03 846 24.98 -9.6 14.7 77 -13 8.7
23:10 1017 30.03 846 24.98 -9.6 14.7 77 -12.9 8.7
23:15 1017 30.03 846 24.98 -9.6 14.7 77 -12.9 8.8
23:20 1017 30.03 846 24.98 -9.6 14.8 77 -12.9 8.8
23:25 1017 30.03 846 24.98 -9.5 14.8 78 -12.7 9.1
23:30 1017 30.03 846 24.98 -9.5 14.9 78 -12.7 9.1
23:35 1017 30.03 846 24.98 -9.5 14.9 77 -12.8 9
23:40 1017 30.03 846 24.98 -9.5 14.8 78 -12.8 9
23:45 1017 30.03 846 24.98 -9.6 14.8 78 -12.8 9
23:50 1017 30.03 846 24.98 -9.6 14.7 77 -12.9 8.9
23:55 1017 30.03 846 24.98 -9.6 14.7 78 -12.8 9
24:00 1017 30.03 846 24.98 -9.7 14.6 77 -12.9 8.8